sensor_id;sensor_type;location;lat;lon;timestamp;pressure;altitude;pressure_sealevel;temperature;humidity
64967;BME280;51710;38.732;-121.358;2024-02-21T00:01:57;101141.97;;;16.37;62.46
64967;BME280;51710;38.732;-121.358;2024-02-21T00:04:23;101151.25;;;16.35;62.62
64967;BME280;51710;38.732;-121.358;2024-02-21T00:06:49;101147.91;;;16.33;62.93
64967;BME280;51710;38.732;-121.358;2024-02-21T00:09:16;101147.25;;;16.31;63.24
64967;BME280;51710;38.732;-121.358;2024-02-21T00:11:42;101151.97;;;16.29;63.47
64967;BME280;51710;38.732;-121.358;2024-02-21T00:14:08;101150.50;;;16.26;63.72
64967;BME280;51710;38.732;-121.358;2024-02-21T00:16:34;101153.19;;;16.26;64.12
64967;BME280;51710;38.732;-121.358;2024-02-21T00:19:01;101151.69;;;16.24;64.21
64967;BME280;51710;38.732;-121.358;2024-02-21T00:21:27;101149.19;;;16.22;64.46
64967;BME280;51710;38.732;-121.358;2024-02-21T00:23:53;101153.72;;;16.22;64.69
64967;BME280;51710;38.732;-121.358;2024-02-21T00:26:19;101151.03;;;16.22;64.88
64967;BME280;51710;38.732;-121.358;2024-02-21T00:28:46;101155.75;;;16.20;64.65
64967;BME280;51710;38.732;-121.358;2024-02-21T00:31:12;101178.84;;;16.14;65.04
64967;BME280;51710;38.732;-121.358;2024-02-21T00:33:38;101195.94;;;15.99;64.45
64967;BME280;51710;38.732;-121.358;2024-02-21T00:36:05;101200.72;;;15.66;64.91
64967;BME280;51710;38.732;-121.358;2024-02-21T00:38:31;101208.78;;;15.27;64.67
64967;BME280;51710;38.732;-121.358;2024-02-21T00:40:57;101202.16;;;14.77;65.40
64967;BME280;51710;38.732;-121.358;2024-02-21T00:43:24;101204.22;;;14.42;66.49
64967;BME280;51710;38.732;-121.358;2024-02-21T00:45:50;101212.78;;;13.98;68.33
64967;BME280;51710;38.732;-121.358;2024-02-21T00:48:20;101212.59;;;13.75;70.10
64967;BME280;51710;38.732;-121.358;2024-02-21T00:50:46;101213.38;;;13.51;71.58
64967;BME280;51710;38.732;-121.358;2024-02-21T00:53:12;101217.34;;;13.31;72.36
64967;BME280;51710;38.732;-121.358;2024-02-21T00:55:39;101224.97;;;13.10;73.57
64967;BME280;51710;38.732;-121.358;2024-02-21T00:58:06;101233.38;;;12.98;74.96
64967;BME280;51710;38.732;-121.358;2024-02-21T01:00:32;101229.81;;;12.81;75.65
64967;BME280;51710;38.732;-121.358;2024-02-21T01:02:58;101230.25;;;12.69;76.35
64967;BME280;51710;38.732;-121.358;2024-02-21T01:05:25;101237.38;;;12.60;77.19
64967;BME280;51710;38.732;-121.358;2024-02-21T01:07:53;101237.00;;;12.55;77.40
64967;BME280;51710;38.732;-121.358;2024-02-21T01:10:19;101231.97;;;12.52;78.83
64967;BME280;51710;38.732;-121.358;2024-02-21T01:12:45;101242.06;;;12.40;79.32
64967;BME280;51710;38.732;-121.358;2024-02-21T01:15:12;101225.59;;;12.27;79.76
64967;BME280;51710;38.732;-121.358;2024-02-21T01:17:38;101225.41;;;12.21;81.00
64967;BME280;51710;38.732;-121.358;2024-02-21T01:20:10;101244.03;;;12.13;81.23
64967;BME280;51710;38.732;-121.358;2024-02-21T01:22:36;101248.69;;;12.11;81.91
64967;BME280;51710;38.732;-121.358;2024-02-21T01:25:03;101247.16;;;12.08;82.10
64967;BME280;51710;38.732;-121.358;2024-02-21T01:27:29;101247.47;;;12.05;82.51
64967;BME280;51710;38.732;-121.358;2024-02-21T01:29:55;101243.28;;;12.03;82.92
64967;BME280;51710;38.732;-121.358;2024-02-21T01:32:22;101244.94;;;12.04;83.49
64967;BME280;51710;38.732;-121.358;2024-02-21T01:34:50;101238.53;;;11.97;83.13
64967;BME280;51710;38.732;-121.358;2024-02-21T01:37:17;101234.50;;;11.93;83.89
64967;BME280;51710;38.732;-121.358;2024-02-21T01:39:43;101226.50;;;11.93;84.28
64967;BME280;51710;38.732;-121.358;2024-02-21T01:42:09;101230.69;;;11.95;84.58
64967;BME280;51710;38.732;-121.358;2024-02-21T01:44:35;101216.88;;;12.00;84.42
64967;BME280;51710;38.732;-121.358;2024-02-21T01:47:03;101213.94;;;12.03;84.66
64967;BME280;51710;38.732;-121.358;2024-02-21T01:49:30;101209.94;;;12.07;84.73
64967;BME280;51710;38.732;-121.358;2024-02-21T01:51:56;101201.63;;;12.10;84.42
64967;BME280;51710;38.732;-121.358;2024-02-21T01:54:23;101213.13;;;12.10;84.85
64967;BME280;51710;38.732;-121.358;2024-02-21T01:56:49;101210.00;;;12.15;84.80
64967;BME280;51710;38.732;-121.358;2024-02-21T01:59:18;101211.16;;;12.12;84.51
64967;BME280;51710;38.732;-121.358;2024-02-21T02:01:46;101216.66;;;12.11;84.73
64967;BME280;51710;38.732;-121.358;2024-02-21T02:04:13;101215.63;;;12.12;84.72
64967;BME280;51710;38.732;-121.358;2024-02-21T02:06:41;101219.63;;;12.08;84.98
64967;BME280;51710;38.732;-121.358;2024-02-21T02:09:07;101215.13;;;12.08;85.16
64967;BME280;51710;38.732;-121.358;2024-02-21T02:11:34;101211.16;;;12.12;85.30
64967;BME280;51710;38.732;-121.358;2024-02-21T02:14:00;101211.69;;;12.16;85.61
64967;BME280;51710;38.732;-121.358;2024-02-21T02:16:26;101223.72;;;12.20;85.94
64967;BME280;51710;38.732;-121.358;2024-02-21T02:18:52;101224.25;;;12.23;85.37
64967;BME280;51710;38.732;-121.358;2024-02-21T02:21:40;101220.06;;;12.21;85.42
64967;BME280;51710;38.732;-121.358;2024-02-21T02:24:09;101223.72;;;12.20;85.33
64967;BME280;51710;38.732;-121.358;2024-02-21T02:26:35;101232.28;;;12.23;85.68
64967;BME280;51710;38.732;-121.358;2024-02-21T02:29:02;101231.78;;;12.28;85.79
64967;BME280;51710;38.732;-121.358;2024-02-21T02:31:28;101234.81;;;12.33;86.12
64967;BME280;51710;38.732;-121.358;2024-02-21T02:33:54;101235.19;;;12.38;86.36
64967;BME280;51710;38.732;-121.358;2024-02-21T02:36:21;101235.88;;;12.40;85.96
64967;BME280;51710;38.732;-121.358;2024-02-21T02:38:47;101239.25;;;12.42;85.73
64967;BME280;51710;38.732;-121.358;2024-02-21T02:41:13;101242.06;;;12.40;85.97
64967;BME280;51710;38.732;-121.358;2024-02-21T02:43:39;101248.56;;;12.38;86.33
64967;BME280;51710;38.732;-121.358;2024-02-21T02:46:06;101251.38;;;12.36;86.43
64967;BME280;51710;38.732;-121.358;2024-02-21T02:48:32;101256.88;;;12.35;86.30
64967;BME280;51710;38.732;-121.358;2024-02-21T02:50:58;101257.88;;;12.34;86.14
64967;BME280;51710;38.732;-121.358;2024-02-21T02:53:25;101258.69;;;12.34;86.07
64967;BME280;51710;38.732;-121.358;2024-02-21T02:55:51;101262.53;;;12.32;86.29
64967;BME280;51710;38.732;-121.358;2024-02-21T02:58:17;101265.53;;;12.29;86.51
64967;BME280;51710;38.732;-121.358;2024-02-21T03:00:44;101264.84;;;12.27;87.04
64967;BME280;51710;38.732;-121.358;2024-02-21T03:03:10;101270.03;;;12.28;86.59
64967;BME280;51710;38.732;-121.358;2024-02-21T03:05:36;101270.88;;;12.29;86.72
64967;BME280;51710;38.732;-121.358;2024-02-21T03:08:03;101271.84;;;12.28;86.39
64967;BME280;51710;38.732;-121.358;2024-02-21T03:10:35;101279.84;;;12.28;87.09
64967;BME280;51710;38.732;-121.358;2024-02-21T03:13:02;101274.19;;;12.31;87.02
64967;BME280;51710;38.732;-121.358;2024-02-21T03:15:29;101279.25;;;12.34;87.18
64967;BME280;51710;38.732;-121.358;2024-02-21T03:17:55;101289.63;;;12.37;87.22
64967;BME280;51710;38.732;-121.358;2024-02-21T03:20:22;101288.78;;;12.36;87.43
64967;BME280;51710;38.732;-121.358;2024-02-21T03:22:48;101289.47;;;12.38;86.98
64967;BME280;51710;38.732;-121.358;2024-02-21T03:25:15;101288.97;;;12.43;86.87
64967;BME280;51710;38.732;-121.358;2024-02-21T03:27:41;101303.03;;;12.45;86.79
64967;BME280;51710;38.732;-121.358;2024-02-21T03:30:08;101302.06;;;12.46;86.94
64967;BME280;51710;38.732;-121.358;2024-02-21T03:32:34;101300.19;;;12.46;86.92
64967;BME280;51710;38.732;-121.358;2024-02-21T03:35:01;101303.56;;;12.48;87.02
64967;BME280;51710;38.732;-121.358;2024-02-21T03:37:27;101314.09;;;12.50;86.89
64967;BME280;51710;38.732;-121.358;2024-02-21T03:39:53;101310.44;;;12.51;87.09
64967;BME280;51710;38.732;-121.358;2024-02-21T03:42:20;101311.56;;;12.48;86.88
64967;BME280;51710;38.732;-121.358;2024-02-21T03:44:46;101315.41;;;12.46;86.97
64967;BME280;51710;38.732;-121.358;2024-02-21T03:47:12;101314.03;;;12.42;87.30
64967;BME280;51710;38.732;-121.358;2024-02-21T03:49:38;101305.31;;;12.40;87.42
64967;BME280;51710;38.732;-121.358;2024-02-21T03:52:05;101311.16;;;12.35;87.48
64967;BME280;51710;38.732;-121.358;2024-02-21T03:54:31;101312.97;;;12.35;87.57
64967;BME280;51710;38.732;-121.358;2024-02-21T03:56:57;101322.69;;;12.36;87.41
64967;BME280;51710;38.732;-121.358;2024-02-21T03:59:24;101322.00;;;12.34;87.26
64967;BME280;51710;38.732;-121.358;2024-02-21T04:01:53;101312.44;;;12.31;87.41
64967;BME280;51710;38.732;-121.358;2024-02-21T04:04:20;101319.31;;;12.34;87.79
64967;BME280;51710;38.732;-121.358;2024-02-21T04:06:51;101318.31;;;12.35;87.66
64967;BME280;51710;38.732;-121.358;2024-02-21T04:09:17;101316.34;;;12.37;87.58
64967;BME280;51710;38.732;-121.358;2024-02-21T04:11:44;101325.03;;;12.39;87.84
64967;BME280;51710;38.732;-121.358;2024-02-21T04:14:10;101330.06;;;12.42;87.56
64967;BME280;51710;38.732;-121.358;2024-02-21T04:16:39;101332.41;;;12.45;87.79
64967;BME280;51710;38.732;-121.358;2024-02-21T04:19:06;101335.78;;;12.47;87.93
64967;BME280;51710;38.732;-121.358;2024-02-21T04:21:32;101341.97;;;12.48;87.82
64967;BME280;51710;38.732;-121.358;2024-02-21T04:23:58;101342.81;;;12.48;88.01
64967;BME280;51710;38.732;-121.358;2024-02-21T04:26:25;101349.81;;;12.49;88.00
64967;BME280;51710;38.732;-121.358;2024-02-21T04:28:51;101347.47;;;12.46;88.09
64967;BME280;51710;38.732;-121.358;2024-02-21T04:31:18;101344.09;;;12.44;88.02
64967;BME280;51710;38.732;-121.358;2024-02-21T04:33:44;101346.78;;;12.44;88.21
64967;BME280;51710;38.732;-121.358;2024-02-21T04:36:10;101348.28;;;12.46;88.36
64967;BME280;51710;38.732;-121.358;2024-02-21T04:38:39;101344.63;;;12.48;88.39
64967;BME280;51710;38.732;-121.358;2024-02-21T04:41:06;101344.16;;;12.52;88.63
64967;BME280;51710;38.732;-121.358;2024-02-21T04:43:33;101348.53;;;12.53;88.13
64967;BME280;51710;38.732;-121.358;2024-02-21T04:46:00;101348.16;;;12.48;87.76
64967;BME280;51710;38.732;-121.358;2024-02-21T04:48:26;101346.09;;;12.42;88.30
64967;BME280;51710;38.732;-121.358;2024-02-21T04:50:52;101353.56;;;12.38;88.67
64967;BME280;51710;38.732;-121.358;2024-02-21T04:53:18;101357.63;;;12.42;88.81
64967;BME280;51710;38.732;-121.358;2024-02-21T04:55:45;101359.81;;;12.47;88.83
64967;BME280;51710;38.732;-121.358;2024-02-21T04:58:11;101361.19;;;12.51;88.80
64967;BME280;51710;38.732;-121.358;2024-02-21T05:00:38;101362.56;;;12.55;88.85
64967;BME280;51710;38.732;-121.358;2024-02-21T05:03:04;101357.75;;;12.59;89.04
64967;BME280;51710;38.732;-121.358;2024-02-21T05:05:30;101355.63;;;12.62;88.87
64967;BME280;51710;38.732;-121.358;2024-02-21T05:07:57;101357.13;;;12.65;88.88
64967;BME280;51710;38.732;-121.358;2024-02-21T05:10:23;101356.97;;;12.66;89.00
64967;BME280;51710;38.732;-121.358;2024-02-21T05:12:49;101353.59;;;12.64;88.81
64967;BME280;51710;38.732;-121.358;2024-02-21T05:15:15;101350.94;;;12.64;88.79
64967;BME280;51710;38.732;-121.358;2024-02-21T05:17:42;101355.47;;;12.64;88.98
64967;BME280;51710;38.732;-121.358;2024-02-21T05:20:09;101362.47;;;12.65;88.95
64967;BME280;51710;38.732;-121.358;2024-02-21T05:22:36;101362.47;;;12.65;88.53
64967;BME280;51710;38.732;-121.358;2024-02-21T05:25:02;101363.31;;;12.65;88.91
64967;BME280;51710;38.732;-121.358;2024-02-21T05:27:28;101370.31;;;12.66;88.85
64967;BME280;51710;38.732;-121.358;2024-02-21T05:29:54;101370.31;;;12.66;89.08
64967;BME280;51710;38.732;-121.358;2024-02-21T05:32:21;101368.66;;;12.65;88.94
64967;BME280;51710;38.732;-121.358;2024-02-21T05:34:49;101370.50;;;12.65;88.71
64967;BME280;51710;38.732;-121.358;2024-02-21T05:37:16;101366.97;;;12.64;89.00
64967;BME280;51710;38.732;-121.358;2024-02-21T05:39:43;101364.28;;;12.64;88.99
64967;BME280;51710;38.732;-121.358;2024-02-21T05:42:10;101354.28;;;12.66;89.26
64967;BME280;51710;38.732;-121.358;2024-02-21T05:44:36;101354.97;;;12.68;89.12
64967;BME280;51710;38.732;-121.358;2024-02-21T05:47:02;101352.84;;;12.72;88.98
64967;BME280;51710;38.732;-121.358;2024-02-21T05:49:29;101358.03;;;12.73;89.22
64967;BME280;51710;38.732;-121.358;2024-02-21T05:51:56;101360.69;;;12.73;88.84
64967;BME280;51710;38.732;-121.358;2024-02-21T05:54:22;101365.50;;;12.70;88.73
64967;BME280;51710;38.732;-121.358;2024-02-21T05:56:48;101364.00;;;12.67;89.00
64967;BME280;51710;38.732;-121.358;2024-02-21T05:59:14;101352.63;;;12.65;88.92
64967;BME280;51710;38.732;-121.358;2024-02-21T06:01:41;101359.59;;;12.58;89.20
64967;BME280;51710;38.732;-121.358;2024-02-21T06:04:07;101354.84;;;12.52;89.02
64967;BME280;51710;38.732;-121.358;2024-02-21T06:06:33;101356.16;;;12.48;89.02
64967;BME280;51710;38.732;-121.358;2024-02-21T06:09:00;101358.06;;;12.38;89.22
64967;BME280;51710;38.732;-121.358;2024-02-21T06:11:28;101359.22;;;12.35;89.82
64967;BME280;51710;38.732;-121.358;2024-02-21T06:13:55;101368.09;;;12.36;89.64
64967;BME280;51710;38.732;-121.358;2024-02-21T06:16:21;101363.72;;;12.35;90.01
64967;BME280;51710;38.732;-121.358;2024-02-21T06:18:47;101368.09;;;12.36;89.99
64967;BME280;51710;38.732;-121.358;2024-02-21T06:21:14;101357.41;;;12.36;90.15
64967;BME280;51710;38.732;-121.358;2024-02-21T06:23:42;101371.72;;;12.35;90.16
64967;BME280;51710;38.732;-121.358;2024-02-21T06:26:08;101361.03;;;12.35;90.42
64967;BME280;51710;38.732;-121.358;2024-02-21T06:28:35;101361.72;;;12.37;90.41
64967;BME280;51710;38.732;-121.358;2024-02-21T06:31:02;101362.44;;;12.39;90.34
64967;BME280;51710;38.732;-121.358;2024-02-21T06:33:28;101364.63;;;12.43;90.47
64967;BME280;51710;38.732;-121.358;2024-02-21T06:35:54;101366.84;;;12.48;90.58
64967;BME280;51710;38.732;-121.358;2024-02-21T06:38:21;101354.84;;;12.52;90.36
64967;BME280;51710;38.732;-121.358;2024-02-21T06:40:47;101365.25;;;12.55;90.28
64967;BME280;51710;38.732;-121.358;2024-02-21T06:43:19;101356.38;;;12.55;90.09
64967;BME280;51710;38.732;-121.358;2024-02-21T06:45:46;101363.56;;;12.54;90.50
64967;BME280;51710;38.732;-121.358;2024-02-21T06:48:18;101364.25;;;12.56;90.21
64967;BME280;51710;38.732;-121.358;2024-02-21T06:50:45;101363.22;;;12.57;90.42
64967;BME280;51710;38.732;-121.358;2024-02-21T06:53:12;101373.38;;;12.54;90.12
64967;BME280;51710;38.732;-121.358;2024-02-21T06:55:38;101373.16;;;12.47;90.07
64967;BME280;51710;38.732;-121.358;2024-02-21T06:58:04;101374.34;;;12.44;90.34
64967;BME280;51710;38.732;-121.358;2024-02-21T07:00:31;101383.78;;;12.39;90.38
64967;BME280;51710;38.732;-121.358;2024-02-21T07:02:57;101382.25;;;12.36;90.67
64967;BME280;51710;38.732;-121.358;2024-02-21T07:05:24;101379.50;;;12.28;90.56
64967;BME280;51710;38.732;-121.358;2024-02-21T07:07:50;101383.31;;;12.26;90.93
64967;BME280;51710;38.732;-121.358;2024-02-21T07:10:16;101382.63;;;12.24;90.97
64967;BME280;51710;38.732;-121.358;2024-02-21T07:12:42;101385.59;;;12.21;90.93
64967;BME280;51710;38.732;-121.358;2024-02-21T07:15:09;101381.13;;;12.21;91.14
64967;BME280;51710;38.732;-121.358;2024-02-21T07:17:35;101382.94;;;12.21;91.23
64967;BME280;51710;38.732;-121.358;2024-02-21T07:20:01;101385.59;;;12.21;91.77
64967;BME280;51710;38.732;-121.358;2024-02-21T07:22:28;101387.16;;;12.23;91.59
64967;BME280;51710;38.732;-121.358;2024-02-21T07:24:55;101388.13;;;12.22;91.53
64967;BME280;51710;38.732;-121.358;2024-02-21T07:27:21;101380.25;;;12.21;91.62
64967;BME280;51710;38.732;-121.358;2024-02-21T07:29:47;101385.59;;;12.21;91.67
64967;BME280;51710;38.732;-121.358;2024-02-21T07:32:13;101381.97;;;12.22;91.83
64967;BME280;51710;38.732;-121.358;2024-02-21T07:34:39;101385.28;;;12.24;91.86
64967;BME280;51710;38.732;-121.358;2024-02-21T07:37:06;101387.69;;;12.27;91.89
64967;BME280;51710;38.732;-121.358;2024-02-21T07:39:36;101381.50;;;12.26;92.04
64967;BME280;51710;38.732;-121.358;2024-02-21T07:42:05;101375.16;;;12.27;92.10
64967;BME280;51710;38.732;-121.358;2024-02-21T07:44:32;101372.47;;;12.27;91.99
64967;BME280;51710;38.732;-121.358;2024-02-21T07:46:58;101369.97;;;12.26;91.83
64967;BME280;51710;38.732;-121.358;2024-02-21T07:49:25;101369.28;;;12.24;91.86
64967;BME280;51710;38.732;-121.358;2024-02-21T07:51:51;101374.63;;;12.24;91.80
64967;BME280;51710;38.732;-121.358;2024-02-21T07:54:18;101383.63;;;12.23;91.62
64967;BME280;51710;38.732;-121.358;2024-02-21T07:56:44;101380.25;;;12.21;91.57
64967;BME280;51710;38.732;-121.358;2024-02-21T07:59:11;101383.94;;;12.20;91.54
64967;BME280;51710;38.732;-121.358;2024-02-21T08:01:39;101375.94;;;12.20;91.51
64967;BME280;51710;38.732;-121.358;2024-02-21T08:04:05;101373.25;;;12.20;91.66
64967;BME280;51710;38.732;-121.358;2024-02-21T08:06:31;101380.41;;;12.19;91.38
64967;BME280;51710;38.732;-121.358;2024-02-21T08:08:58;101377.22;;;12.16;91.18
64967;BME280;51710;38.732;-121.358;2024-02-21T08:11:26;101370.22;;;12.15;91.55
64967;BME280;51710;38.732;-121.358;2024-02-21T08:13:52;101371.19;;;12.14;91.38
64967;BME280;51710;38.732;-121.358;2024-02-21T08:16:18;101359.66;;;12.13;91.04
64967;BME280;51710;38.732;-121.358;2024-02-21T08:18:45;101357.84;;;12.14;91.65
64967;BME280;51710;38.732;-121.358;2024-02-21T08:21:11;101361.50;;;12.13;91.63
64967;BME280;51710;38.732;-121.358;2024-02-21T08:23:37;101350.97;;;12.11;91.17
64967;BME280;51710;38.732;-121.358;2024-02-21T08:26:04;101355.63;;;12.09;91.34
64967;BME280;51710;38.732;-121.358;2024-02-21T08:28:31;101340.91;;;12.05;91.73
64967;BME280;51710;38.732;-121.358;2024-02-21T08:30:57;101341.91;;;12.04;91.81
64967;BME280;51710;38.732;-121.358;2024-02-21T08:33:23;101336.84;;;12.01;91.59
64967;BME280;51710;38.732;-121.358;2024-02-21T08:35:51;101343.34;;;11.99;91.64
64967;BME280;51710;38.732;-121.358;2024-02-21T08:38:18;101349.81;;;11.96;91.65
64967;BME280;51710;38.732;-121.358;2024-02-21T08:40:44;101348.28;;;11.94;91.53
64967;BME280;51710;38.732;-121.358;2024-02-21T08:43:10;101347.28;;;11.95;91.48
64967;BME280;51710;38.732;-121.358;2024-02-21T08:45:37;101338.31;;;11.96;91.88
64967;BME280;51710;38.732;-121.358;2024-02-21T08:48:04;101350.66;;;11.97;91.85
64967;BME280;51710;38.732;-121.358;2024-02-21T08:50:30;101354.16;;;11.97;91.12
64967;BME280;51710;38.732;-121.358;2024-02-21T08:52:57;101360.78;;;11.93;91.82
64967;BME280;51710;38.732;-121.358;2024-02-21T08:55:23;101358.28;;;11.92;91.78
64967;BME280;51710;38.732;-121.358;2024-02-21T08:57:50;101357.28;;;11.93;91.99
64967;BME280;51710;38.732;-121.358;2024-02-21T09:00:16;101357.28;;;11.93;91.97
64967;BME280;51710;38.732;-121.358;2024-02-21T09:02:42;101355.59;;;11.92;91.50
64967;BME280;51710;38.732;-121.358;2024-02-21T09:05:09;101353.63;;;11.94;91.82
64967;BME280;51710;38.732;-121.358;2024-02-21T09:07:35;101356.31;;;11.94;91.82
64967;BME280;51710;38.732;-121.358;2024-02-21T09:10:01;101357.13;;;11.94;91.54
64967;BME280;51710;38.732;-121.358;2024-02-21T09:12:28;101359.94;;;11.93;91.93
64967;BME280;51710;38.732;-121.358;2024-02-21T09:14:55;101366.13;;;11.93;91.93
64967;BME280;51710;38.732;-121.358;2024-02-21T09:17:21;101356.31;;;11.94;92.14
64967;BME280;51710;38.732;-121.358;2024-02-21T09:19:48;101351.78;;;11.94;91.83
64967;BME280;51710;38.732;-121.358;2024-02-21T09:22:14;101358.66;;;11.97;92.04
64967;BME280;51710;38.732;-121.358;2024-02-21T09:24:40;101355.13;;;11.96;91.94
64967;BME280;51710;38.732;-121.358;2024-02-21T09:27:06;101356.84;;;11.97;91.84
64967;BME280;51710;38.732;-121.358;2024-02-21T09:29:33;101355.13;;;11.96;92.08
64967;BME280;51710;38.732;-121.358;2024-02-21T09:32:02;101354.31;;;11.96;92.32
64967;BME280;51710;38.732;-121.358;2024-02-21T09:34:29;101356.00;;;11.97;92.33
64967;BME280;51710;38.732;-121.358;2024-02-21T09:36:55;101363.47;;;11.93;92.00
64967;BME280;51710;38.732;-121.358;2024-02-21T09:39:22;101360.94;;;11.92;91.83
64967;BME280;51710;38.732;-121.358;2024-02-21T09:41:55;101361.91;;;11.91;92.16
64967;BME280;51710;38.732;-121.358;2024-02-21T09:44:26;101359.94;;;11.93;92.26
64967;BME280;51710;38.732;-121.358;2024-02-21T09:47:17;101365.13;;;11.94;91.95
64967;BME280;51710;38.732;-121.358;2024-02-21T09:49:45;101366.66;;;11.97;92.01
64967;BME280;51710;38.732;-121.358;2024-02-21T09:52:13;101363.69;;;12.00;91.91
64967;BME280;51710;38.732;-121.358;2024-02-21T09:54:41;101371.69;;;12.00;91.54
64967;BME280;51710;38.732;-121.358;2024-02-21T09:57:10;101378.19;;;11.97;91.58
64967;BME280;51710;38.732;-121.358;2024-02-21T09:59:37;101377.03;;;12.00;91.65
64967;BME280;51710;38.732;-121.358;2024-02-21T10:02:04;101386.75;;;12.01;91.47
64967;BME280;51710;38.732;-121.358;2024-02-21T10:04:32;101386.59;;;12.02;91.34
64967;BME280;51710;38.732;-121.358;2024-02-21T10:06:58;101390.75;;;12.05;91.44
64967;BME280;51710;38.732;-121.358;2024-02-21T10:09:28;101381.78;;;12.06;91.39
64967;BME280;51710;38.732;-121.358;2024-02-21T10:11:56;101382.75;;;12.05;91.07
64967;BME280;51710;38.732;-121.358;2024-02-21T10:14:22;101380.94;;;12.05;91.21
64967;BME280;51710;38.732;-121.358;2024-02-21T10:16:56;101382.75;;;12.05;91.27
64967;BME280;51710;38.732;-121.358;2024-02-21T10:19:23;101372.22;;;12.03;91.11
64967;BME280;51710;38.732;-121.358;2024-02-21T10:22:06;101380.41;;;12.02;91.17
64967;BME280;51710;38.732;-121.358;2024-02-21T10:24:34;101380.41;;;12.02;91.14
64967;BME280;51710;38.732;-121.358;2024-02-21T10:27:07;101383.75;;;12.04;91.68
64967;BME280;51710;38.732;-121.358;2024-02-21T10:29:35;101374.75;;;12.05;91.10
64967;BME280;51710;38.732;-121.358;2024-02-21T10:32:08;101380.78;;;12.07;91.29
64967;BME280;51710;38.732;-121.358;2024-02-21T10:34:35;101385.16;;;12.08;91.07
64967;BME280;51710;38.732;-121.358;2024-02-21T10:37:02;101389.50;;;12.09;91.31
64967;BME280;51710;38.732;-121.358;2024-02-21T10:39:33;101392.47;;;12.06;91.30
64967;BME280;51710;38.732;-121.358;2024-02-21T10:42:01;101394.44;;;12.04;91.36
64967;BME280;51710;38.732;-121.358;2024-02-21T10:44:33;101392.47;;;12.06;91.66
64967;BME280;51710;38.732;-121.358;2024-02-21T10:46:59;101387.13;;;12.06;91.83
64967;BME280;51710;38.732;-121.358;2024-02-21T10:49:30;101395.81;;;12.08;91.51
64967;BME280;51710;38.732;-121.358;2024-02-21T10:55:03;101392.31;;;12.07;91.59
64967;BME280;51710;38.732;-121.358;2024-02-21T10:57:31;101390.66;;;12.06;91.41
64967;BME280;51710;38.732;-121.358;2024-02-21T10:59:59;101386.81;;;12.09;91.54
64967;BME280;51710;38.732;-121.358;2024-02-21T11:02:26;101391.84;;;12.12;91.85
64967;BME280;51710;38.732;-121.358;2024-02-21T11:04:55;101388.19;;;12.13;91.20
64967;BME280;51710;38.732;-121.358;2024-02-21T11:07:23;101395.22;;;12.14;91.40
64967;BME280;51710;38.732;-121.358;2024-02-21T11:09:53;101384.53;;;12.14;91.34
64967;BME280;51710;38.732;-121.358;2024-02-21T11:12:21;101392.38;;;12.15;91.53
64967;BME280;51710;38.732;-121.358;2024-02-21T11:14:48;101381.72;;;12.15;91.47
64967;BME280;51710;38.732;-121.358;2024-02-21T11:17:18;101389.56;;;12.17;91.38
64967;BME280;51710;38.732;-121.358;2024-02-21T11:19:45;101394.09;;;12.16;91.32
64967;BME280;51710;38.732;-121.358;2024-02-21T11:22:18;101398.03;;;12.12;91.34
64967;BME280;51710;38.732;-121.358;2024-02-21T11:24:45;101400.84;;;12.11;91.40
64967;BME280;51710;38.732;-121.358;2024-02-21T11:27:16;101395.53;;;12.11;92.08
64967;BME280;51710;38.732;-121.358;2024-02-21T11:29:46;101395.53;;;12.11;91.94
64967;BME280;51710;38.732;-121.358;2024-02-21T11:32:17;101394.81;;;12.09;91.72
64967;BME280;51710;38.732;-121.358;2024-02-21T11:35:03;101399.31;;;12.08;92.42
64967;BME280;51710;38.732;-121.358;2024-02-21T11:37:34;101399.19;;;12.10;92.09
64967;BME280;51710;38.732;-121.358;2024-02-21T11:40:03;101402.84;;;12.09;91.88
64967;BME280;51710;38.732;-121.358;2024-02-21T11:42:30;101394.66;;;12.10;92.36
64967;BME280;51710;38.732;-121.358;2024-02-21T11:44:57;101395.22;;;12.14;92.04
64967;BME280;51710;38.732;-121.358;2024-02-21T11:47:24;101400.41;;;12.15;91.96
64967;BME280;51710;38.732;-121.358;2024-02-21T11:49:50;101401.25;;;12.16;92.17
64967;BME280;51710;38.732;-121.358;2024-02-21T11:52:24;101395.75;;;12.17;92.18
64967;BME280;51710;38.732;-121.358;2024-02-21T11:54:54;101404.59;;;12.18;91.97
64967;BME280;51710;38.732;-121.358;2024-02-21T11:57:22;101404.59;;;12.18;92.16
64967;BME280;51710;38.732;-121.358;2024-02-21T11:59:51;101401.94;;;12.18;91.85
64967;BME280;51710;38.732;-121.358;2024-02-21T12:02:20;101400.13;;;12.18;92.13
64967;BME280;51710;38.732;-121.358;2024-02-21T12:04:47;101403.91;;;12.16;92.28
64967;BME280;51710;38.732;-121.358;2024-02-21T12:07:14;101406.75;;;12.14;92.42
64967;BME280;51710;38.732;-121.358;2024-02-21T12:09:42;101408.72;;;12.12;92.00
64967;BME280;51710;38.732;-121.358;2024-02-21T12:12:08;101410.16;;;12.07;92.01
64967;BME280;51710;38.732;-121.358;2024-02-21T12:14:35;101418.47;;;12.04;92.41
64967;BME280;51710;38.732;-121.358;2024-02-21T12:17:02;101416.09;;;12.01;92.55
64967;BME280;51710;38.732;-121.358;2024-02-21T12:19:33;101416.09;;;12.01;92.48
64967;BME280;51710;38.732;-121.358;2024-02-21T12:22:00;101420.91;;;11.97;92.83
64967;BME280;51710;38.732;-121.358;2024-02-21T12:24:28;101425.38;;;11.97;92.76